Time;durP1;ratioP1;P1;durP2;ratioP2;P2;SDS_P1;SDS_P2;PMS_P1;PMS_P2;Temp;Humidity;BMP_temperature;BMP_pressure;BME280_temperature;BME280_humidity;BME280_pressure;Samples;Min_cycle;Max_cycle;Signal;HPM_P1;HPM_P2
2022/02/25 00:02:05;;;;;;;2.00;0.55;;;;;;;;;;6217434;23;20169;-66
2022/02/25 00:04:31;;;;;;;4.35;0.70;;;;;;;;;;6217077;23;20232;-66
2022/02/25 00:06:57;;;;;;;1.98;0.60;;;;;;;;;;6217252;23;20271;-66
2022/02/25 00:09:23;;;;;;;3.13;0.65;;;;;;;;;;6217100;23;20555;-66
2022/02/25 00:11:48;;;;;;;1.67;0.50;;;;;;;;;;6216969;23;20145;-65
2022/02/25 00:14:15;;;;;;;1.08;0.50;;;;;;;;;;6217036;23;20401;-65
2022/02/25 00:16:41;;;;;;;2.90;0.50;;;;;;;;;;6217350;23;20159;-65
2022/02/25 00:19:07;;;;;;;2.22;0.40;;;;;;;;;;6217076;23;20149;-65
2022/02/25 00:21:33;;;;;;;1.20;0.20;;;;;;;;;;6216714;23;20176;-66
2022/02/25 00:23:59;;;;;;;3.38;0.70;;;;;;;;;;6217409;23;20177;-67
2022/02/25 00:26:25;;;;;;;3.05;0.73;;;;;;;;;;6217187;23;20145;-67
2022/02/25 00:28:51;;;;;;;1.05;0.50;;;;;;;;;;6217431;23;20145;-67
2022/02/25 00:31:17;;;;;;;4.07;0.70;;;;;;;;;;6217321;23;20219;-66
2022/02/25 00:33:43;;;;;;;1.63;0.60;;;;;;;;;;6217677;23;20145;-66
2022/02/25 00:36:09;;;;;;;2.20;0.60;;;;;;;;;;6218082;23;20141;-66
2022/02/25 00:38:35;;;;;;;1.73;0.52;;;;;;;;;;6218426;23;20473;-68
2022/02/25 00:41:01;;;;;;;3.55;0.77;;;;;;;;;;6218413;23;20207;-67
2022/02/25 00:43:27;;;;;;;1.20;0.63;;;;;;;;;;6217990;23;20164;-67
2022/02/25 00:45:53;;;;;;;1.27;0.70;;;;;;;;;;6219782;23;20207;-67
2022/02/25 00:48:19;;;;;;;2.25;0.85;;;;;;;;;;6219887;23;20137;-67
2022/02/25 00:50:45;;;;;;;1.58;1.00;;;;;;;;;;6218988;23;20160;-66
2022/02/25 00:53:11;;;;;;;1.67;0.70;;;;;;;;;;6217446;23;20141;-66
2022/02/25 00:55:37;;;;;;;1.60;0.90;;;;;;;;;;6217226;23;20148;-66
2022/02/25 00:58:03;;;;;;;3.92;1.13;;;;;;;;;;6216894;23;20216;-66
2022/02/25 01:00:29;;;;;;;2.78;1.15;;;;;;;;;;6216668;23;20503;-66
2022/02/25 01:02:55;;;;;;;2.13;0.90;;;;;;;;;;6216765;23;20141;-66
2022/02/25 01:05:21;;;;;;;4.15;1.02;;;;;;;;;;6217180;23;20145;-66
2022/02/25 01:07:47;;;;;;;2.45;0.73;;;;;;;;;;6216748;23;20148;-67
2022/02/25 01:10:15;;;;;;;2.92;0.93;;;;;;;;;;6217040;23;20137;-67
2022/02/25 01:12:41;;;;;;;6.22;0.98;;;;;;;;;;6217123;23;20176;-67
2022/02/25 01:15:07;;;;;;;2.35;0.80;;;;;;;;;;6216776;23;20145;-66
2022/02/25 01:17:34;;;;;;;1.13;0.70;;;;;;;;;;6216503;23;20557;-67
2022/02/25 01:20:00;;;;;;;3.58;1.20;;;;;;;;;;6216887;23;20176;-66
2022/02/25 01:22:26;;;;;;;2.28;1.10;;;;;;;;;;6217169;23;20426;-67
2022/02/25 01:24:52;;;;;;;3.58;1.00;;;;;;;;;;6217111;23;20141;-66
2022/02/25 01:27:18;;;;;;;3.47;1.00;;;;;;;;;;6216937;23;20137;-66
2022/02/25 01:29:44;;;;;;;1.98;1.20;;;;;;;;;;6217532;23;20583;-66
2022/02/25 01:32:10;;;;;;;4.85;1.70;;;;;;;;;;6218302;23;20235;-65
2022/02/25 01:34:36;;;;;;;5.28;1.65;;;;;;;;;;6217996;23;20215;-66
2022/02/25 01:37:02;;;;;;;3.05;1.70;;;;;;;;;;6217373;23;20180;-66
2022/02/25 01:39:28;;;;;;;3.95;1.55;;;;;;;;;;6216977;23;20456;-66
2022/02/25 01:41:55;;;;;;;5.25;1.63;;;;;;;;;;6216853;23;20169;-67
2022/02/25 01:44:26;;;;;;;3.95;1.55;;;;;;;;;;6215067;23;20176;-66
2022/02/25 01:46:52;;;;;;;6.32;1.60;;;;;;;;;;6216458;23;20553;-66
2022/02/25 01:49:19;;;;;;;3.08;1.20;;;;;;;;;;6216534;23;20145;-65
2022/02/25 01:51:45;;;;;;;5.28;1.40;;;;;;;;;;6216443;23;20140;-66
2022/02/25 01:54:11;;;;;;;5.45;1.63;;;;;;;;;;6216033;23;20144;-66
2022/02/25 01:56:38;;;;;;;6.90;1.85;;;;;;;;;;6216595;23;20164;-65
2022/02/25 01:59:04;;;;;;;4.22;1.30;;;;;;;;;;6216135;23;20141;-65
2022/02/25 02:01:30;;;;;;;8.02;1.30;;;;;;;;;;6216003;23;20255;-66
2022/02/25 02:03:56;;;;;;;7.25;1.90;;;;;;;;;;6216120;23;20141;-66
2022/02/25 02:06:22;;;;;;;4.50;1.15;;;;;;;;;;6216130;23;20612;-66
2022/02/25 02:08:48;;;;;;;3.80;1.27;;;;;;;;;;6215966;23;20216;-66
2022/02/25 02:11:31;;;;;;;5.28;1.73;;;;;;;;;;6216411;23;20183;-66
2022/02/25 02:13:57;;;;;;;5.45;1.30;;;;;;;;;;6216719;23;20172;-66
2022/02/25 02:16:24;;;;;;;3.28;1.27;;;;;;;;;;6217134;23;20145;-67
2022/02/25 02:18:50;;;;;;;6.55;1.60;;;;;;;;;;6215951;23;20172;-67
2022/02/25 02:21:16;;;;;;;3.92;1.10;;;;;;;;;;6215844;23;20172;-67
2022/02/25 02:23:42;;;;;;;5.25;1.30;;;;;;;;;;6215878;23;20142;-67
2022/02/25 02:26:08;;;;;;;5.78;1.30;;;;;;;;;;6216153;23;20141;-67
2022/02/25 02:28:34;;;;;;;4.07;1.38;;;;;;;;;;6215996;23;20149;-67
2022/02/25 02:31:00;;;;;;;4.40;1.90;;;;;;;;;;6215974;23;20152;-67
2022/02/25 02:33:26;;;;;;;2.30;1.33;;;;;;;;;;6215941;23;20137;-67
2022/02/25 02:35:52;;;;;;;4.65;1.23;;;;;;;;;;6215914;23;20194;-66
2022/02/25 02:38:17;;;;;;;3.85;1.10;;;;;;;;;;6216129;23;20189;-67
2022/02/25 02:40:44;;;;;;;1.95;1.02;;;;;;;;;;6214708;23;20568;-67
2022/02/25 02:43:10;;;;;;;4.25;1.35;;;;;;;;;;6215775;23;20207;-66
2022/02/25 02:45:36;;;;;;;6.68;1.40;;;;;;;;;;6216153;23;20168;-65
2022/02/25 02:48:03;;;;;;;3.88;1.20;;;;;;;;;;6215886;23;20550;-67
2022/02/25 02:50:29;;;;;;;4.40;1.60;;;;;;;;;;6216606;23;20141;-66
2022/02/25 02:52:55;;;;;;;2.30;0.95;;;;;;;;;;6215709;23;20619;-66
2022/02/25 02:55:22;;;;;;;3.80;1.52;;;;;;;;;;6216222;23;20149;-66
2022/02/25 02:57:48;;;;;;;1.98;1.33;;;;;;;;;;6215829;23;20573;-66
2022/02/25 03:00:14;;;;;;;5.18;1.52;;;;;;;;;;6215793;23;20498;-66
2022/02/25 03:02:40;;;;;;;4.72;1.75;;;;;;;;;;6215877;23;20168;-66
2022/02/25 03:05:06;;;;;;;6.03;1.55;;;;;;;;;;6216182;23;20441;-65
2022/02/25 03:07:32;;;;;;;6.43;1.58;;;;;;;;;;6217204;23;20220;-66
2022/02/25 03:09:58;;;;;;;3.88;1.55;;;;;;;;;;6217526;23;20148;-66
2022/02/25 03:12:24;;;;;;;5.47;1.83;;;;;;;;;;6217487;23;20631;-66
2022/02/25 03:14:50;;;;;;;4.68;1.92;;;;;;;;;;6217471;23;20172;-66
2022/02/25 03:17:16;;;;;;;4.85;2.05;;;;;;;;;;6217578;23;20145;-66
2022/02/25 03:19:43;;;;;;;4.93;2.00;;;;;;;;;;6217346;23;20578;-66
2022/02/25 03:22:09;;;;;;;6.07;1.83;;;;;;;;;;6217290;23;20527;-67
2022/02/25 03:24:35;;;;;;;5.28;2.08;;;;;;;;;;6217319;23;20137;-66
2022/02/25 03:27:01;;;;;;;7.55;2.33;;;;;;;;;;6217371;23;20199;-65
2022/02/25 03:29:27;;;;;;;5.30;2.70;;;;;;;;;;6217881;23;20145;-66
2022/02/25 03:31:53;;;;;;;7.18;2.72;;;;;;;;;;6217220;23;20160;-64
2022/02/25 03:34:19;;;;;;;7.00;2.78;;;;;;;;;;6217201;23;20156;-65
2022/02/25 03:36:45;;;;;;;7.43;2.60;;;;;;;;;;6217591;23;20176;-66
2022/02/25 03:39:11;;;;;;;6.00;2.33;;;;;;;;;;6217222;23;20592;-65
2022/02/25 03:41:37;;;;;;;9.05;2.72;;;;;;;;;;6218678;23;20175;-64
2022/02/25 03:44:03;;;;;;;8.25;2.72;;;;;;;;;;6219421;23;20141;-65
2022/02/25 03:46:29;;;;;;;7.88;2.42;;;;;;;;;;6221055;23;20447;-65
2022/02/25 03:48:54;;;;;;;8.82;2.75;;;;;;;;;;6221467;23;20137;-65
2022/02/25 03:51:26;;;;;;;7.85;2.50;;;;;;;;;;6221710;23;20192;-66
2022/02/25 03:53:52;;;;;;;6.47;2.53;;;;;;;;;;6221662;23;20133;-66
2022/02/25 03:56:18;;;;;;;5.82;2.40;;;;;;;;;;6221294;23;20152;-66
2022/02/25 03:58:44;;;;;;;7.78;2.60;;;;;;;;;;6221335;23;20230;-66
2022/02/25 04:01:10;;;;;;;7.25;2.78;;;;;;;;;;6221548;23;20165;-66
2022/02/25 04:03:36;;;;;;;9.45;2.20;;;;;;;;;;6219313;23;20141;-65
2022/02/25 04:06:01;;;;;;;5.03;2.72;;;;;;;;;;6220042;23;20148;-65
2022/02/25 04:08:28;;;;;;;7.43;2.25;;;;;;;;;;6219744;23;20150;-65
2022/02/25 04:10:53;;;;;;;7.03;3.15;;;;;;;;;;6218915;23;20223;-65
2022/02/25 04:13:19;;;;;;;7.93;3.00;;;;;;;;;;6218893;23;20151;-66
2022/02/25 04:15:45;;;;;;;6.30;2.72;;;;;;;;;;6220537;23;20448;-65
2022/02/25 04:18:11;;;;;;;6.28;2.50;;;;;;;;;;6217832;23;20161;-65
2022/02/25 04:20:38;;;;;;;8.25;2.63;;;;;;;;;;6221165;23;20137;-66
2022/02/25 04:23:04;;;;;;;9.05;2.90;;;;;;;;;;6222143;23;20137;-65
2022/02/25 04:25:30;;;;;;;9.23;2.65;;;;;;;;;;6222677;23;20144;-66
2022/02/25 04:27:56;;;;;;;9.45;2.80;;;;;;;;;;6222477;23;20137;-65
2022/02/25 04:30:23;;;;;;;7.45;3.10;;;;;;;;;;6221824;23;20141;-65
2022/02/25 04:32:48;;;;;;;11.13;3.15;;;;;;;;;;6222305;23;20160;-65
2022/02/25 04:35:15;;;;;;;7.20;2.90;;;;;;;;;;6222111;23;20572;-65
2022/02/25 04:37:41;;;;;;;8.50;3.00;;;;;;;;;;6221068;23;20585;-66
2022/02/25 04:40:08;;;;;;;10.32;2.90;;;;;;;;;;6221742;23;20166;-66
2022/02/25 04:42:33;;;;;;;9.40;3.55;;;;;;;;;;6221648;23;20207;-66
2022/02/25 04:44:59;;;;;;;9.38;2.97;;;;;;;;;;6221937;23;20137;-65
2022/02/25 04:47:26;;;;;;;4.88;2.80;;;;;;;;;;6220963;23;20176;-65
2022/02/25 04:49:52;;;;;;;11.82;3.22;;;;;;;;;;6220879;23;20522;-65
2022/02/25 04:52:18;;;;;;;10.25;3.20;;;;;;;;;;6221400;23;20550;-65
2022/02/25 04:54:45;;;;;;;7.88;3.00;;;;;;;;;;6221366;23;20141;-65
2022/02/25 04:57:11;;;;;;;8.43;3.35;;;;;;;;;;6221103;23;20149;-65
2022/02/25 04:59:37;;;;;;;11.82;3.30;;;;;;;;;;6221370;23;20145;-65
2022/02/25 05:02:04;;;;;;;5.25;2.70;;;;;;;;;;6220985;23;20628;-66
2022/02/25 05:04:30;;;;;;;10.30;4.03;;;;;;;;;;6216323;23;20144;-66
2022/02/25 05:06:56;;;;;;;9.15;3.08;;;;;;;;;;6216435;23;20137;-66
2022/02/25 05:09:21;;;;;;;10.90;3.25;;;;;;;;;;6216299;23;20216;-66
2022/02/25 05:11:47;;;;;;;10.32;2.85;;;;;;;;;;6216377;23;20140;-66
2022/02/25 05:22:28;;;;;;;8.20;2.70;;;;;;;;;;6221406;23;20311;-66
2022/02/25 05:24:54;;;;;;;5.43;2.53;;;;;;;;;;6222494;23;20204;-66
2022/02/25 05:27:20;;;;;;;6.05;2.83;;;;;;;;;;6220775;23;20561;-65
2022/02/25 05:29:46;;;;;;;9.65;3.08;;;;;;;;;;6218867;23;20503;-65
2022/02/25 05:32:12;;;;;;;9.20;2.42;;;;;;;;;;6219107;23;20225;-65
2022/02/25 05:34:38;;;;;;;4.40;2.40;;;;;;;;;;6221776;23;20184;-64
2022/02/25 05:37:04;;;;;;;9.57;2.28;;;;;;;;;;6222572;23;20592;-65
2022/02/25 05:39:30;;;;;;;6.95;2.03;;;;;;;;;;6222203;23;20227;-65
2022/02/25 05:41:56;;;;;;;5.20;2.35;;;;;;;;;;6220487;23;20164;-65
2022/02/25 05:44:22;;;;;;;7.18;2.30;;;;;;;;;;6220573;23;20141;-65
2022/02/25 05:46:48;;;;;;;6.25;2.78;;;;;;;;;;6221142;23;20564;-64
2022/02/25 05:49:14;;;;;;;5.68;2.42;;;;;;;;;;6220874;23;20137;-65
2022/02/25 05:51:40;;;;;;;8.90;3.05;;;;;;;;;;6220812;23;20444;-64
2022/02/25 05:54:06;;;;;;;7.15;2.53;;;;;;;;;;6221522;23;20203;-64
2022/02/25 05:56:32;;;;;;;5.68;2.40;;;;;;;;;;6220529;23;20199;-64
2022/02/25 05:58:58;;;;;;;7.55;2.58;;;;;;;;;;6220493;23;20147;-64
2022/02/25 06:01:24;;;;;;;7.78;2.95;;;;;;;;;;6220179;23;20180;-64
2022/02/25 06:03:50;;;;;;;6.10;2.75;;;;;;;;;;6220050;23;20141;-65
2022/02/25 06:06:16;;;;;;;6.65;2.28;;;;;;;;;;6220061;23;20148;-64
2022/02/25 06:08:42;;;;;;;8.70;2.78;;;;;;;;;;6220090;23;20141;-64
2022/02/25 06:11:08;;;;;;;7.72;2.58;;;;;;;;;;6219960;23;20288;-64
2022/02/25 06:13:34;;;;;;;10.23;2.80;;;;;;;;;;6223769;23;20656;-65
2022/02/25 06:16:00;;;;;;;4.68;2.33;;;;;;;;;;6223513;23;20160;-65
2022/02/25 06:18:26;;;;;;;6.75;2.80;;;;;;;;;;6223945;23;20577;-65
2022/02/25 06:20:51;;;;;;;7.78;3.03;;;;;;;;;;6223101;23;20172;-65
2022/02/25 06:23:21;;;;;;;9.38;2.65;;;;;;;;;;6223805;23;20173;-64
2022/02/25 06:25:47;;;;;;;8.57;2.80;;;;;;;;;;6223457;23;20629;-64
2022/02/25 06:28:13;;;;;;;5.70;2.42;;;;;;;;;;6223612;23;20137;-64
2022/02/25 06:30:39;;;;;;;10.50;2.95;;;;;;;;;;6223693;23;20142;-65
2022/02/25 06:33:05;;;;;;;6.43;2.70;;;;;;;;;;6223552;23;20156;-64
2022/02/25 06:35:31;;;;;;;6.53;2.90;;;;;;;;;;6222117;23;20153;-64
2022/02/25 06:37:57;;;;;;;4.88;3.08;;;;;;;;;;6223376;23;20147;-64
2022/02/25 06:40:23;;;;;;;8.95;2.75;;;;;;;;;;6222744;23;20426;-65
2022/02/25 06:42:49;;;;;;;8.25;3.35;;;;;;;;;;6224382;23;20262;-66
2022/02/25 06:45:16;;;;;;;5.13;2.47;;;;;;;;;;6223451;23;20168;-64
2022/02/25 06:47:43;;;;;;;8.35;2.92;;;;;;;;;;6223500;23;20141;-65
2022/02/25 06:50:09;;;;;;;6.47;2.58;;;;;;;;;;6224356;23;20137;-65
2022/02/25 06:52:35;;;;;;;10.25;3.38;;;;;;;;;;6224700;23;20145;-66
2022/02/25 06:55:01;;;;;;;7.47;2.60;;;;;;;;;;6224080;23;20145;-65
2022/02/25 06:57:27;;;;;;;7.57;2.97;;;;;;;;;;6223615;23;20151;-65
2022/02/25 06:59:53;;;;;;;6.13;2.70;;;;;;;;;;6223865;23;20448;-65
2022/02/25 07:02:19;;;;;;;7.57;2.63;;;;;;;;;;6224056;23;20164;-66
2022/02/25 07:04:45;;;;;;;6.88;2.40;;;;;;;;;;6223938;23;20152;-66
2022/02/25 07:07:11;;;;;;;5.75;2.78;;;;;;;;;;6224369;23;20141;-66
2022/02/25 07:09:37;;;;;;;7.95;2.75;;;;;;;;;;6225411;23;20492;-66
2022/02/25 07:12:03;;;;;;;7.78;3.13;;;;;;;;;;6224064;23;20200;-65
2022/02/25 07:14:29;;;;;;;10.68;2.65;;;;;;;;;;6224071;23;20554;-65
2022/02/25 07:16:55;;;;;;;7.47;2.95;;;;;;;;;;6223747;23;20141;-66
2022/02/25 07:19:21;;;;;;;5.82;2.53;;;;;;;;;;6222490;23;20149;-66
2022/02/25 07:21:47;;;;;;;10.15;2.85;;;;;;;;;;6223245;23;20164;-65
2022/02/25 07:24:13;;;;;;;8.60;2.55;;;;;;;;;;6224425;23;20137;-66
2022/02/25 07:26:38;;;;;;;6.75;2.53;;;;;;;;;;6223879;23;20141;-65
2022/02/25 07:29:05;;;;;;;17.08;2.90;;;;;;;;;;6222637;23;20140;-65
2022/02/25 07:31:31;;;;;;;5.18;2.80;;;;;;;;;;6222348;23;20597;-65
2022/02/25 07:33:57;;;;;;;5.13;2.35;;;;;;;;;;6222449;23;20169;-65
2022/02/25 07:36:24;;;;;;;5.65;2.08;;;;;;;;;;6221116;23;20156;-66
2022/02/25 07:38:50;;;;;;;8.63;2.30;;;;;;;;;;6222276;23;20145;-65
2022/02/25 07:41:16;;;;;;;6.07;2.38;;;;;;;;;;6220056;23;20169;-66
2022/02/25 07:43:42;;;;;;;6.47;2.80;;;;;;;;;;6220730;23;20143;-65
2022/02/25 07:46:08;;;;;;;6.15;2.38;;;;;;;;;;6220310;23;20536;-65
2022/02/25 07:48:34;;;;;;;6.43;1.90;;;;;;;;;;6219424;23;20228;-65
2022/02/25 07:51:00;;;;;;;4.50;2.20;;;;;;;;;;6219435;23;20141;-64
2022/02/25 07:53:27;;;;;;;7.28;2.05;;;;;;;;;;6219692;23;20151;-64
2022/02/25 07:55:54;;;;;;;8.75;2.28;;;;;;;;;;6219510;23;20137;-65
2022/02/25 07:58:20;;;;;;;6.88;2.13;;;;;;;;;;6219427;23;20141;-65
2022/02/25 08:00:45;;;;;;;7.13;2.08;;;;;;;;;;6219338;23;20169;-66
2022/02/25 08:03:11;;;;;;;7.15;1.77;;;;;;;;;;6218957;23;20145;-65
2022/02/25 08:05:37;;;;;;;9.55;2.00;;;;;;;;;;6220809;23;20137;-66
2022/02/25 08:08:05;;;;;;;6.03;1.70;;;;;;;;;;6219169;23;20165;-65
2022/02/25 08:10:35;;;;;;;5.53;1.85;;;;;;;;;;6219617;23;20155;-67
2022/02/25 08:13:01;;;;;;;4.68;1.65;;;;;;;;;;6219660;23;20144;-65
2022/02/25 08:15:27;;;;;;;5.85;1.77;;;;;;;;;;6219097;23;20219;-65
2022/02/25 08:17:53;;;;;;;5.88;1.80;;;;;;;;;;6220507;23;20149;-64
2022/02/25 08:20:19;;;;;;;6.75;1.50;;;;;;;;;;6220221;23;20164;-65
2022/02/25 08:22:45;;;;;;;5.45;1.48;;;;;;;;;;6219018;23;20165;-65
2022/02/25 08:25:11;;;;;;;6.07;1.90;;;;;;;;;;6218920;23;20140;-66
2022/02/25 08:27:37;;;;;;;3.80;1.52;;;;;;;;;;6219384;23;20213;-66
2022/02/25 08:30:04;;;;;;;6.95;1.60;;;;;;;;;;6219094;23;20148;-65
2022/02/25 08:32:30;;;;;;;7.97;1.70;;;;;;;;;;6218655;23;20165;-67
2022/02/25 08:34:56;;;;;;;3.95;1.73;;;;;;;;;;6219828;23;20575;-67
2022/02/25 08:37:22;;;;;;;3.60;1.45;;;;;;;;;;6219072;23;20145;-65
2022/02/25 08:39:48;;;;;;;3.15;1.25;;;;;;;;;;6218459;23;20145;-65
2022/02/25 08:42:15;;;;;;;11.30;2.03;;;;;;;;;;6224041;23;20242;-66
2022/02/25 08:44:42;;;;;;;4.72;1.98;;;;;;;;;;6227828;23;20148;-65
2022/02/25 08:47:08;;;;;;;7.18;2.00;;;;;;;;;;6221643;23;20138;-65
2022/02/25 08:49:35;;;;;;;7.50;2.33;;;;;;;;;;6220594;23;20439;-65
2022/02/25 08:52:00;;;;;;;5.63;2.45;;;;;;;;;;6220825;23;20145;-66
2022/02/25 08:54:26;;;;;;;8.48;1.90;;;;;;;;;;6221656;23;20156;-65
2022/02/25 08:56:52;;;;;;;7.65;2.40;;;;;;;;;;6221383;23;20533;-65
2022/02/25 08:59:18;;;;;;;5.85;2.00;;;;;;;;;;6217996;23;20443;-64
2022/02/25 09:01:44;;;;;;;9.48;2.20;;;;;;;;;;6218491;23;20175;-64
2022/02/25 09:04:10;;;;;;;5.60;2.15;;;;;;;;;;6218199;23;20138;-64
2022/02/25 09:06:38;;;;;;;6.85;2.30;;;;;;;;;;6219624;23;20148;-65
2022/02/25 09:09:04;;;;;;;8.38;2.70;;;;;;;;;;6218938;23;20137;-64
2022/02/25 09:11:30;;;;;;;7.70;1.98;;;;;;;;;;6218424;23;20151;-64
2022/02/25 09:13:56;;;;;;;4.85;2.08;;;;;;;;;;6218273;23;20141;-65
2022/02/25 09:16:22;;;;;;;6.90;2.53;;;;;;;;;;6218894;23;20152;-66
2022/02/25 09:18:48;;;;;;;5.35;2.03;;;;;;;;;;6218961;23;20442;-65
2022/02/25 09:21:14;;;;;;;7.97;2.20;;;;;;;;;;6219318;23;20191;-65
2022/02/25 09:23:40;;;;;;;6.20;2.78;;;;;;;;;;6218415;23;20557;-65
2022/02/25 09:26:07;;;;;;;8.38;2.50;;;;;;;;;;6218848;23;20143;-65
2022/02/25 09:28:33;;;;;;;6.82;2.03;;;;;;;;;;6219048;23;20165;-66
2022/02/25 09:30:59;;;;;;;6.68;2.00;;;;;;;;;;6219936;23;20160;-66
2022/02/25 09:33:25;;;;;;;5.47;2.38;;;;;;;;;;6219563;23;20141;-66
2022/02/25 09:35:51;;;;;;;9.15;2.50;;;;;;;;;;6219871;23;20151;-66
2022/02/25 09:38:17;;;;;;;5.28;2.15;;;;;;;;;;6220558;23;20224;-65
2022/02/25 09:40:43;;;;;;;5.95;2.38;;;;;;;;;;6220308;23;20145;-66
2022/02/25 09:43:09;;;;;;;7.15;2.08;;;;;;;;;;6218570;23;20573;-64
2022/02/25 09:45:36;;;;;;;9.38;2.22;;;;;;;;;;6217838;23;20144;-64
2022/02/25 09:48:01;;;;;;;5.10;2.00;;;;;;;;;;6216738;23;20426;-66
2022/02/25 09:50:28;;;;;;;6.47;2.10;;;;;;;;;;6219714;23;20361;-65
2022/02/25 09:52:53;;;;;;;6.47;2.33;;;;;;;;;;6220459;23;20144;-66
2022/02/25 09:55:21;;;;;;;7.25;2.72;;;;;;;;;;6221711;23;20522;-66
2022/02/25 09:57:48;;;;;;;5.32;2.17;;;;;;;;;;6220890;23;20144;-66
2022/02/25 10:00:14;;;;;;;9.75;2.65;;;;;;;;;;6220482;23;20148;-66
2022/02/25 10:02:42;;;;;;;4.65;2.10;;;;;;;;;;6220774;23;20168;-66
2022/02/25 10:05:18;;;;;;;8.80;2.17;;;;;;;;;;6221147;23;20152;-66
2022/02/25 10:07:44;;;;;;;9.93;2.13;;;;;;;;;;6221058;23;20152;-66
2022/02/25 10:10:11;;;;;;;6.10;2.10;;;;;;;;;;6219429;23;20145;-65
2022/02/25 10:12:38;;;;;;;5.82;1.83;;;;;;;;;;6218776;23;20141;-66
2022/02/25 10:15:05;;;;;;;6.55;2.40;;;;;;;;;;6218438;23;20170;-66
2022/02/25 10:17:31;;;;;;;7.07;1.83;;;;;;;;;;6220814;23;20152;-66
2022/02/25 10:20:00;;;;;;;5.53;1.85;;;;;;;;;;6223637;23;20163;-66
2022/02/25 10:22:28;;;;;;;3.30;1.92;;;;;;;;;;6222972;23;20445;-66
2022/02/25 10:25:00;;;;;;;6.28;2.05;;;;;;;;;;6222805;23;20227;-66
2022/02/25 10:27:31;;;;;;;8.00;2.25;;;;;;;;;;6223126;23;20247;-66
2022/02/25 10:29:59;;;;;;;5.25;1.75;;;;;;;;;;6223910;23;20152;-66
2022/02/25 10:32:33;;;;;;;6.25;2.20;;;;;;;;;;6222262;23;20188;-66
2022/02/25 10:34:59;;;;;;;4.70;1.70;;;;;;;;;;6221924;23;20556;-65
2022/02/25 10:37:25;;;;;;;6.95;2.60;;;;;;;;;;6222779;23;20152;-65
2022/02/25 10:39:53;;;;;;;6.80;2.20;;;;;;;;;;6222263;23;20555;-65
2022/02/25 10:42:22;;;;;;;3.58;1.83;;;;;;;;;;6221780;23;20169;-65
2022/02/25 10:44:59;;;;;;;7.15;2.08;;;;;;;;;;6221809;23;20579;-65
2022/02/25 10:47:29;;;;;;;4.55;2.03;;;;;;;;;;6221569;23;20192;-65
2022/02/25 10:50:12;;;;;;;5.68;1.90;;;;;;;;;;6223815;23;20137;-65
2022/02/25 10:52:56;;;;;;;5.05;2.05;;;;;;;;;;6222574;23;20172;-67
2022/02/25 10:55:27;;;;;;;7.45;2.40;;;;;;;;;;6222642;23;20156;-66
2022/02/25 10:57:54;;;;;;;5.30;2.05;;;;;;;;;;6221326;23;20556;-66
2022/02/25 11:00:20;;;;;;;5.85;2.00;;;;;;;;;;6222032;23;20142;-65
2022/02/25 11:02:47;;;;;;;7.47;2.20;;;;;;;;;;6222609;23;20172;-65
2022/02/25 11:05:21;;;;;;;3.72;1.80;;;;;;;;;;6221883;23;20175;-66
2022/02/25 11:07:51;;;;;;;4.53;2.15;;;;;;;;;;6221475;23;20232;-66
2022/02/25 11:10:21;;;;;;;4.45;2.30;;;;;;;;;;6222093;23;20125;-66
2022/02/25 11:12:48;;;;;;;5.82;2.22;;;;;;;;;;6222421;23;20141;-66
2022/02/25 11:15:19;;;;;;;6.57;2.25;;;;;;;;;;6222232;23;20283;-66
2022/02/25 11:17:46;;;;;;;4.75;1.95;;;;;;;;;;6222367;23;20145;-66
2022/02/25 11:20:12;;;;;;;6.90;2.33;;;;;;;;;;6222252;23;20192;-66
2022/02/25 11:22:40;;;;;;;5.38;2.17;;;;;;;;;;6222958;23;20184;-66
2022/02/25 11:25:13;;;;;;;5.35;2.38;;;;;;;;;;6222255;23;20141;-66
2022/02/25 11:27:39;;;;;;;6.05;2.63;;;;;;;;;;6222118;23;20144;-66
2022/02/25 11:30:05;;;;;;;6.30;2.63;;;;;;;;;;6221403;23;20145;-66
2022/02/25 11:32:33;;;;;;;6.07;2.08;;;;;;;;;;6221196;23;20215;-66
2022/02/25 11:35:00;;;;;;;5.00;1.77;;;;;;;;;;6220746;23;20488;-66
2022/02/25 11:37:40;;;;;;;9.45;2.80;;;;;;;;;;6221202;23;20141;-66
2022/02/25 11:40:06;;;;;;;4.30;2.00;;;;;;;;;;6221690;23;20194;-66
2022/02/25 11:42:32;;;;;;;6.38;2.25;;;;;;;;;;6222871;23;20452;-66
2022/02/25 11:45:20;;;;;;;5.00;1.98;;;;;;;;;;6220923;23;20147;-66
2022/02/25 11:47:50;;;;;;;6.95;2.58;;;;;;;;;;6220861;23;20126;-66
2022/02/25 11:50:42;;;;;;;7.85;2.33;;;;;;;;;;6221402;23;20414;-66
2022/02/25 11:53:16;;;;;;;7.53;2.20;;;;;;;;;;6219737;23;20220;-66
2022/02/25 11:55:43;;;;;;;6.90;2.33;;;;;;;;;;6221481;23;20138;-66
2022/02/25 11:58:27;;;;;;;5.68;1.92;;;;;;;;;;6221106;23;20548;-66
2022/02/25 12:01:06;;;;;;;6.40;2.00;;;;;;;;;;6220550;23;20152;-66
2022/02/25 12:03:36;;;;;;;6.72;2.15;;;;;;;;;;6220015;23;20227;-66
2022/02/25 12:06:03;;;;;;;4.75;1.80;;;;;;;;;;6220846;23;20156;-66
2022/02/25 12:08:30;;;;;;;5.85;2.15;;;;;;;;;;6220121;23;20228;-66
2022/02/25 12:11:01;;;;;;;4.50;1.90;;;;;;;;;;6220679;23;20580;-66
2022/02/25 12:13:28;;;;;;;5.97;1.90;;;;;;;;;;6220781;23;20141;-66
2022/02/25 12:15:54;;;;;;;5.43;2.13;;;;;;;;;;6222468;23;20145;-66
2022/02/25 12:18:20;;;;;;;5.32;1.83;;;;;;;;;;6221430;23;20137;-66
2022/02/25 12:20:50;;;;;;;5.10;1.98;;;;;;;;;;6222134;23;20147;-65
2022/02/25 12:23:23;;;;;;;6.35;2.00;;;;;;;;;;6221542;23;20156;-65
2022/02/25 12:25:55;;;;;;;5.50;1.98;;;;;;;;;;6221292;23;20139;-65
2022/02/25 12:28:27;;;;;;;5.28;1.95;;;;;;;;;;6221400;23;20566;-65
2022/02/25 12:30:53;;;;;;;3.00;1.58;;;;;;;;;;6221727;23;20147;-65
2022/02/25 12:33:32;;;;;;;5.50;2.00;;;;;;;;;;6222105;23;20152;-65
2022/02/25 12:35:59;;;;;;;5.65;1.83;;;;;;;;;;6221479;23;20220;-66
2022/02/25 12:38:25;;;;;;;4.07;1.90;;;;;;;;;;6221753;23;20152;-66
2022/02/25 12:40:52;;;;;;;3.17;1.70;;;;;;;;;;6221431;23;20145;-66
2022/02/25 12:43:19;;;;;;;4.28;1.85;;;;;;;;;;6220475;23;20149;-66
2022/02/25 12:45:45;;;;;;;4.35;1.63;;;;;;;;;;6220870;23;20136;-66
2022/02/25 12:48:11;;;;;;;4.10;2.03;;;;;;;;;;6220968;23;20137;-66
2022/02/25 12:50:43;;;;;;;4.38;1.77;;;;;;;;;;6221045;23;20167;-66
2022/02/25 12:53:09;;;;;;;3.28;1.85;;;;;;;;;;6219049;23;20141;-66
2022/02/25 12:55:35;;;;;;;4.25;1.90;;;;;;;;;;6218694;23;20155;-66
2022/02/25 12:58:01;;;;;;;4.88;2.20;;;;;;;;;;6219785;23;20145;-65
2022/02/25 13:00:34;;;;;;;5.25;2.25;;;;;;;;;;5094740;27;20544;-65
2022/02/25 13:03:01;;;;;;;4.88;2.17;;;;;;;;;;5093440;28;20180;-66
2022/02/25 13:05:27;;;;;;;6.10;2.22;;;;;;;;;;5093091;28;20167;-66
2022/02/25 13:07:57;;;;;;;5.05;2.05;;;;;;;;;;5093886;28;20217;-65
2022/02/25 13:10:29;;;;;;;3.22;1.67;;;;;;;;;;5093440;28;20225;-66
2022/02/25 13:12:55;;;;;;;5.65;1.80;;;;;;;;;;5094086;28;20246;-65
2022/02/25 13:15:28;;;;;;;4.72;1.73;;;;;;;;;;5095003;28;20179;-66
2022/02/25 13:17:54;;;;;;;3.78;1.90;;;;;;;;;;5095304;28;20172;-65
2022/02/25 13:20:20;;;;;;;4.45;1.70;;;;;;;;;;5094945;28;20245;-66
2022/02/25 13:22:47;;;;;;;2.88;1.58;;;;;;;;;;5094469;28;20614;-66
2022/02/25 13:25:21;;;;;;;2.58;1.52;;;;;;;;;;5095849;28;20164;-65
2022/02/25 13:27:48;;;;;;;2.13;1.70;;;;;;;;;;5094618;28;20168;-66
2022/02/25 13:30:24;;;;;;;3.17;1.60;;;;;;;;;;5094818;28;20607;-65
2022/02/25 13:32:58;;;;;;;3.88;1.90;;;;;;;;;;5094804;28;20665;-65
2022/02/25 13:35:25;;;;;;;4.22;1.77;;;;;;;;;;5095267;28;20168;-65
2022/02/25 13:38:02;;;;;;;2.88;1.80;;;;;;;;;;5094689;28;20201;-65
2022/02/25 13:40:30;;;;;;;3.65;1.60;;;;;;;;;;5093644;28;20183;-65
2022/02/25 13:42:56;;;;;;;4.50;1.80;;;;;;;;;;5093223;28;20254;-65
2022/02/25 13:45:33;;;;;;;3.65;1.73;;;;;;;;;;5094051;28;20188;-66
2022/02/25 13:53:35;;;;;;;4.15;2.13;;;;;;;;;;5091169;28;20217;-66
2022/02/25 13:56:03;;;;;;;4.70;1.95;;;;;;;;;;5090617;28;20164;-66
2022/02/25 13:58:29;;;;;;;4.43;1.92;;;;;;;;;;5093790;28;20234;-65
2022/02/25 14:00:55;;;;;;;5.22;2.30;;;;;;;;;;5111311;28;20192;-66
2022/02/25 14:03:21;;;;;;;5.97;2.45;;;;;;;;;;5112094;28;20171;-65
2022/02/25 14:05:46;;;;;;;2.75;1.85;;;;;;;;;;5111307;28;20167;-66
2022/02/25 14:08:19;;;;;;;3.33;2.17;;;;;;;;;;5111693;28;20167;-66
2022/02/25 14:10:46;;;;;;;5.80;1.80;;;;;;;;;;5105052;28;20242;-65
2022/02/25 14:13:15;;;;;;;4.05;1.73;;;;;;;;;;5099191;28;20638;-66
2022/02/25 14:15:42;;;;;;;2.67;1.80;;;;;;;;;;5099181;28;20163;-65
2022/02/25 14:18:10;;;;;;;5.18;1.77;;;;;;;;;;5100297;28;20537;-66
2022/02/25 14:20:36;;;;;;;5.82;2.35;;;;;;;;;;5098713;28;20167;-66
2022/02/25 14:23:04;;;;;;;2.20;1.77;;;;;;;;;;5098173;28;20202;-66
2022/02/25 14:25:36;;;;;;;4.70;2.10;;;;;;;;;;5098023;28;20172;-66
2022/02/25 14:28:04;;;;;;;3.28;1.98;;;;;;;;;;5098095;28;20164;-64
2022/02/25 14:30:35;;;;;;;4.47;2.13;;;;;;;;;;5098497;28;20254;-66
2022/02/25 14:33:05;;;;;;;4.68;1.80;;;;;;;;;;5098245;28;20213;-65
2022/02/25 14:35:31;;;;;;;8.40;2.30;;;;;;;;;;5098908;28;20168;-66
2022/02/25 14:37:57;;;;;;;3.50;1.55;;;;;;;;;;5098012;28;20254;-66
2022/02/25 14:40:28;;;;;;;2.90;1.85;;;;;;;;;;5098716;28;20287;-66
2022/02/25 14:42:54;;;;;;;3.95;1.85;;;;;;;;;;5098552;28;20164;-66
2022/02/25 14:45:21;;;;;;;3.50;1.70;;;;;;;;;;5098221;28;20171;-66
2022/02/25 14:47:47;;;;;;;5.63;1.88;;;;;;;;;;5097285;28;20537;-66
2022/02/25 14:50:13;;;;;;;3.53;1.60;;;;;;;;;;5098250;28;20178;-65
2022/02/25 14:52:39;;;;;;;4.10;1.40;;;;;;;;;;5096782;28;20167;-65
2022/02/25 14:55:06;;;;;;;2.00;1.50;;;;;;;;;;5096556;28;20217;-66
2022/02/25 14:57:32;;;;;;;3.70;1.55;;;;;;;;;;5097297;28;20195;-66